createdAt,value
2022-08-18T00:02:15.275Z,100199.00
2022-08-18T00:04:49.717Z,100196.47
2022-08-18T00:07:25.590Z,100201.91
2022-08-18T00:09:53.553Z,100192.75
2022-08-18T00:12:24.846Z,100193.63
2022-08-18T00:14:52.989Z,100188.22
2022-08-18T00:17:21.146Z,100186.28
2022-08-18T00:19:50.531Z,100193.78
2022-08-18T00:22:21.426Z,100200.44
2022-08-18T00:24:54.926Z,100201.31
2022-08-18T00:27:28.393Z,100201.84
2022-08-18T00:29:58.023Z,100194.28
2022-08-18T00:32:27.559Z,100197.91
2022-08-18T00:34:56.604Z,100196.25
2022-08-18T00:37:24.865Z,100192.22
2022-08-18T00:39:53.459Z,100203.03
2022-08-18T00:42:29.140Z,100204.66
2022-08-18T00:44:59.809Z,100212.84
2022-08-18T00:47:33.170Z,100204.97
2022-08-18T00:50:14.981Z,100213.31
2022-08-18T00:52:49.464Z,100212.47
2022-08-18T00:55:18.159Z,100212.97
2022-08-18T00:57:48.035Z,100220.56
2022-08-18T01:00:16.182Z,100236.56
2022-08-18T01:02:45.688Z,100236.31
2022-08-18T01:05:19.320Z,100240.41
2022-08-18T01:07:48.199Z,100232.25
2022-08-18T01:10:17.100Z,100239.28
2022-08-18T01:12:46.811Z,100236.63
2022-08-18T01:15:28.163Z,100247.19
2022-08-18T01:18:15.522Z,100236.94
2022-08-18T01:21:17.360Z,100246.41
2022-08-18T01:23:47.008Z,100250.75
2022-08-18T01:26:14.522Z,100252.94
2022-08-18T01:28:44.516Z,100245.34
2022-08-18T01:31:13.732Z,100250.22
2022-08-18T01:33:44.048Z,100256.72
2022-08-18T01:36:14.389Z,100254.03
2022-08-18T01:38:42.113Z,100246.22
2022-08-18T01:41:26.078Z,100249.97
2022-08-18T01:43:56.869Z,100247.00
2022-08-18T01:46:24.358Z,100244.63
2022-08-18T01:48:52.122Z,100244.38
2022-08-18T01:51:21.725Z,100245.53
2022-08-18T01:54:09.424Z,100243.34
2022-08-18T01:56:38.278Z,100234.66
2022-08-18T01:59:06.439Z,100230.13
2022-08-18T02:01:45.273Z,100226.06
2022-08-18T02:04:34.398Z,100229.50
2022-08-18T02:07:04.284Z,100231.66
2022-08-18T02:09:31.999Z,100232.47
2022-08-18T02:12:00.986Z,100238.94
2022-08-18T02:14:31.418Z,100241.13
2022-08-18T02:17:01.871Z,100239.50
2022-08-18T02:19:34.081Z,100248.38
2022-08-18T02:22:01.657Z,100245.91
2022-08-18T02:24:29.146Z,100252.41
2022-08-18T02:26:56.785Z,100250.78
2022-08-18T02:29:25.603Z,100253.25
2022-08-18T02:31:53.115Z,100251.63
2022-08-18T02:34:20.602Z,100246.72
2022-08-18T02:36:48.089Z,100240.19
2022-08-18T02:39:15.672Z,100244.81
2022-08-18T02:41:43.169Z,100248.91
2022-08-18T02:44:11.320Z,100246.41
2022-08-18T02:46:40.182Z,100249.59
2022-08-18T02:49:08.419Z,100259.38
2022-08-18T02:51:36.090Z,100243.97
2022-08-18T02:54:03.777Z,100247.75
2022-08-18T02:56:41.679Z,100243.16
2022-08-18T02:59:11.945Z,100237.19
2022-08-18T03:01:42.729Z,100239.38
2022-08-18T03:04:12.408Z,100241.00
2022-08-18T03:06:40.618Z,100241.56
2022-08-18T03:09:10.007Z,100245.38
2022-08-18T03:11:37.686Z,100242.16
2022-08-18T03:14:06.285Z,100244.31
2022-08-18T03:16:53.268Z,100248.91
2022-08-18T03:19:22.757Z,100243.53
2022-08-18T03:21:50.388Z,100254.03
2022-08-18T03:24:22.485Z,100247.75
2022-08-18T03:26:51.625Z,100245.59
2022-08-18T03:29:19.406Z,100249.13
2022-08-18T03:31:48.589Z,100245.97
2022-08-18T03:34:19.353Z,100253.00
2022-08-18T03:36:47.612Z,100246.81
2022-08-18T03:39:15.243Z,100249.97
2022-08-18T03:41:58.798Z,100260.22
2022-08-18T03:44:30.314Z,100259.91
2022-08-18T03:47:00.130Z,100263.63
2022-08-18T03:49:27.898Z,100262.41
2022-08-18T03:51:55.491Z,100258.53
2022-08-18T03:54:23.299Z,100256.91
2022-08-18T03:56:50.978Z,100259.59
2022-08-18T03:59:21.401Z,100259.59
2022-08-18T04:01:50.836Z,100253.09
2022-08-18T04:04:21.728Z,100256.19
2022-08-18T04:06:51.087Z,100258.66
2022-08-18T04:09:19.849Z,100260.09
2022-08-18T04:11:48.256Z,100253.31
2022-08-18T04:14:18.463Z,100263.03
2022-08-18T04:16:46.687Z,100264.03
2022-08-18T04:19:14.342Z,100252.47
2022-08-18T04:21:56.823Z,100250.38
2022-08-18T04:24:25.930Z,100250.34
2022-08-18T04:26:54.064Z,100247.91
2022-08-18T04:29:22.003Z,100253.31
2022-08-18T04:31:51.449Z,100244.09
2022-08-18T04:34:20.353Z,100247.06
2022-08-18T04:36:47.841Z,100252.81
2022-08-18T04:39:16.729Z,100254.72
2022-08-18T04:41:44.935Z,100244.16
2022-08-18T04:44:13.902Z,100246.34
2022-08-18T04:46:43.283Z,100256.34
2022-08-18T04:49:11.924Z,100252.56
2022-08-18T04:52:37.264Z,100255.53
2022-08-18T04:54:30.524Z,100253.69
2022-08-18T04:56:58.193Z,100246.94
2022-08-18T04:59:25.902Z,100244.81
2022-08-18T05:01:53.395Z,100251.31
2022-08-18T05:04:20.886Z,100245.59
2022-08-18T05:06:48.349Z,100253.13
2022-08-18T05:09:22.762Z,100258.78
2022-08-18T05:11:52.127Z,100261.50
2022-08-18T05:14:20.091Z,100270.72
2022-08-18T05:16:49.696Z,100266.06
2022-08-18T05:19:26.154Z,100268.47
2022-08-18T05:21:59.904Z,100267.16
2022-08-18T05:24:37.552Z,100277.16
2022-08-18T05:27:07.373Z,100280.75
2022-08-18T05:29:37.927Z,100288.31
2022-08-18T05:32:37.232Z,100293.66
2022-08-18T05:35:04.515Z,100301.91
2022-08-18T05:37:36.650Z,100303.50
2022-08-18T05:40:10.848Z,100291.31
2022-08-18T05:42:41.095Z,100294.09
2022-08-18T05:45:12.229Z,100285.72
2022-08-18T05:47:40.052Z,100283.88
2022-08-18T05:50:10.469Z,100282.25
2022-08-18T05:52:41.112Z,100284.44
2022-08-18T05:55:34.466Z,100277.94
2022-08-18T05:58:06.375Z,100284.44
2022-08-18T06:00:34.335Z,100284.28
2022-08-18T06:03:07.090Z,100293.16
2022-08-18T06:05:37.698Z,100289.38
2022-08-18T06:08:09.393Z,100276.06
2022-08-18T06:10:37.854Z,100277.50
2022-08-18T06:13:09.585Z,100276.84
2022-08-18T06:15:44.951Z,100279.47
2022-08-18T06:18:27.065Z,100269.75
2022-08-18T06:21:05.582Z,100260.59
2022-08-18T06:23:37.025Z,100255.25
2022-08-18T06:26:13.527Z,100251.44
2022-08-18T06:29:12.263Z,100259.25
2022-08-18T06:31:44.256Z,100254.03
2022-08-18T06:34:18.102Z,100255.09
2022-08-18T06:36:52.967Z,100254.03
2022-08-18T06:39:26.815Z,100254.28
2022-08-18T06:41:54.557Z,100259.69
2022-08-18T06:44:29.156Z,100261.84
2022-08-18T06:46:57.859Z,100262.41
2022-08-18T06:49:35.841Z,100262.47
2022-08-18T06:52:25.605Z,100269.88
2022-08-18T06:54:55.082Z,100267.94
2022-08-18T06:57:24.289Z,100263.34
2022-08-18T06:59:58.571Z,100268.22
2022-08-18T07:02:35.414Z,100278.34
2022-08-18T07:05:06.928Z,100267.19
2022-08-18T07:07:50.799Z,100281.00
2022-08-18T07:10:32.578Z,100283.97
2022-08-18T07:13:17.012Z,100282.94
2022-08-18T07:15:48.125Z,100286.69
2022-08-18T07:18:17.782Z,100293.16
2022-08-18T07:20:47.638Z,100295.69
2022-08-18T07:23:25.725Z,100295.94
2022-08-18T07:26:01.999Z,100306.94
2022-08-18T07:28:32.632Z,100305.56
2022-08-18T07:31:30.769Z,100306.69
2022-08-18T07:34:02.042Z,100306.47
2022-08-18T07:36:33.805Z,100308.91
2022-08-18T07:39:04.682Z,100310.84
2022-08-18T07:41:35.573Z,100313.88
2022-08-18T07:44:14.042Z,100324.75
2022-08-18T07:46:48.777Z,100327.47
2022-08-18T07:49:22.369Z,100324.22
2022-08-18T07:51:53.663Z,100337.25
2022-08-18T07:54:52.258Z,100348.88
2022-08-18T07:57:28.372Z,100342.09
2022-08-18T08:00:05.773Z,100350.53
2022-08-18T08:02:54.987Z,100346.78
2022-08-18T08:05:35.955Z,100360.09
2022-08-18T08:08:10.101Z,100355.34
2022-08-18T08:10:42.834Z,100358.41
2022-08-18T08:13:31.289Z,100361.38
2022-08-18T08:16:11.428Z,100354.53
2022-08-18T08:18:44.236Z,100364.81
2022-08-18T08:21:13.073Z,100362.09
2022-08-18T08:23:46.922Z,100359.72
2022-08-18T08:26:29.328Z,100369.19
2022-08-18T08:29:07.780Z,100374.16
2022-08-18T08:31:44.292Z,100377.19
2022-08-18T08:34:17.981Z,100382.34
2022-08-18T08:36:47.049Z,100375.88
2022-08-18T08:39:20.214Z,100374.56
2022-08-18T08:41:51.751Z,100368.91
2022-08-18T08:44:22.511Z,100374.84
2022-08-18T08:46:55.289Z,100372.72
2022-08-18T08:49:34.744Z,100367.38
2022-08-18T08:52:05.189Z,100363.66
2022-08-18T08:54:41.284Z,100369.91
2022-08-18T08:57:10.245Z,100372.97
2022-08-18T08:59:38.850Z,100376.19
2022-08-18T09:02:48.528Z,100369.19
2022-08-18T09:05:19.954Z,100363.50
2022-08-18T09:08:08.035Z,100377.31
2022-08-18T09:11:08.181Z,100374.34
2022-08-18T09:13:53.003Z,100374.34
2022-08-18T09:16:35.117Z,100375.72
2022-08-18T09:19:15.985Z,100366.50
2022-08-18T09:21:48.639Z,100375.50
2022-08-18T09:24:24.752Z,100362.75
2022-08-18T09:26:54.226Z,100374.66
2022-08-18T09:29:25.790Z,100371.69
2022-08-18T09:32:30.899Z,100359.34
2022-08-18T09:35:07.599Z,100349.84
2022-08-18T09:37:46.451Z,100358.00
2022-08-18T09:41:01.862Z,100352.00
2022-08-18T09:43:33.077Z,100355.03
2022-08-18T09:46:05.761Z,100364.53
2022-08-18T09:48:36.152Z,100371.56
2022-08-18T09:51:36.119Z,100368.03
2022-08-18T09:54:14.593Z,100371.00
2022-08-18T09:57:08.648Z,100371.78
2022-08-18T10:00:00.093Z,100363.88
2022-08-18T10:03:13.616Z,100377.44
2022-08-18T10:05:56.442Z,100372.00
2022-08-18T10:09:27.308Z,100375.75
2022-08-18T10:12:23.273Z,100373.84
2022-08-18T10:18:27.618Z,100367.66
2022-08-18T10:21:01.806Z,100373.06
2022-08-18T10:23:58.107Z,100369.81
2022-08-18T10:27:13.455Z,100367.13
2022-08-18T10:29:55.314Z,100367.69
2022-08-18T10:32:54.225Z,100369.66
2022-08-18T10:36:07.083Z,100375.38
2022-08-18T10:38:46.059Z,100382.97
2022-08-18T10:47:12.192Z,100380.25
2022-08-18T10:49:46.630Z,100390.34
2022-08-18T10:52:45.318Z,100395.50
2022-08-18T10:55:48.652Z,100383.28
2022-08-18T10:58:28.070Z,100375.66
2022-08-18T11:01:10.394Z,100372.94
2022-08-18T11:03:55.474Z,100368.59
2022-08-18T11:06:26.078Z,100362.63
2022-08-18T11:08:57.746Z,100358.00
2022-08-18T11:11:34.192Z,100367.50
2022-08-18T11:14:24.798Z,100362.34
2022-08-18T11:16:59.643Z,100369.94
2022-08-18T11:19:28.281Z,100368.34
2022-08-18T11:21:55.896Z,100361.84
2022-08-18T11:24:25.962Z,100365.34
2022-08-18T11:26:55.542Z,100367.50
2022-08-18T11:29:29.779Z,100368.34
2022-08-18T11:32:05.243Z,100353.41
2022-08-18T11:34:37.873Z,100338.13
2022-08-18T11:37:13.207Z,100314.34
2022-08-18T11:39:50.250Z,100290.53
2022-08-18T11:42:21.760Z,100279.63
2022-08-18T11:44:54.999Z,100269.88
2022-08-18T11:47:27.760Z,100268.69
2022-08-18T11:49:58.834Z,100269.78
2022-08-18T11:52:34.540Z,100279.38
2022-08-18T11:55:16.417Z,100281.81
2022-08-18T11:57:54.492Z,100279.31
2022-08-18T12:00:54.815Z,100269.63
2022-08-18T12:03:32.379Z,100276.56
2022-08-18T12:06:10.812Z,100274.41
2022-08-18T12:08:58.261Z,100281.41
2022-08-18T12:11:28.321Z,100288.09
2022-08-18T12:14:30.088Z,100278.69
2022-08-18T12:16:50.973Z,100262.25
2022-08-18T12:19:24.780Z,100268.34
2022-08-18T12:21:57.055Z,100258.59
2022-08-18T12:24:34.617Z,100256.94
2022-08-18T12:29:53.150Z,100269.94
2022-08-18T12:32:44.256Z,100263.41
2022-08-18T12:35:12.276Z,100259.97
2022-08-18T12:37:58.797Z,100262.97
2022-08-18T12:40:27.409Z,100262.19
2022-08-18T12:42:55.833Z,100249.06
2022-08-18T12:45:24.625Z,100247.91
2022-08-18T12:47:52.693Z,100251.66
2022-08-18T12:53:09.377Z,100236.22
2022-08-18T12:55:43.677Z,100242.78
2022-08-18T12:58:13.026Z,100242.34
2022-08-18T13:00:41.383Z,100241.25
2022-08-18T13:03:09.175Z,100239.03
2022-08-18T13:05:38.218Z,100246.94
2022-08-18T13:08:07.458Z,100241.19
2022-08-18T13:10:46.637Z,100247.38
2022-08-18T13:13:15.537Z,100239.88
2022-08-18T13:15:55.231Z,100232.88
2022-08-18T13:18:27.308Z,100229.06
2022-08-18T13:20:58.482Z,100222.63
2022-08-18T13:23:27.145Z,100215.09
2022-08-18T13:25:59.522Z,100205.72
2022-08-18T13:28:30.278Z,100200.09
2022-08-18T13:30:58.351Z,100197.19
2022-08-18T13:33:56.012Z,100197.81
2022-08-18T13:36:14.997Z,100201.28
2022-08-18T13:38:42.764Z,100207.03
2022-08-18T13:41:15.922Z,100209.53
2022-08-18T13:43:48.012Z,100209.00
2022-08-18T13:46:18.407Z,100196.28
2022-08-18T13:48:47.192Z,100195.63
2022-08-18T13:51:22.049Z,100200.25
2022-08-18T13:53:59.003Z,100197.34
2022-08-18T13:56:39.785Z,100193.38
2022-08-18T13:59:07.481Z,100200.34
2022-08-18T14:01:44.509Z,100194.69
2022-08-18T14:04:22.454Z,100191.47
2022-08-18T14:06:57.056Z,100193.16
2022-08-18T14:09:27.773Z,100180.09
2022-08-18T14:12:05.130Z,100170.59
2022-08-18T14:14:33.205Z,100164.44
2022-08-18T14:17:01.989Z,100166.13
2022-08-18T14:19:47.289Z,100167.88
2022-08-18T14:22:34.898Z,100168.16
2022-08-18T14:25:22.458Z,100173.63
2022-08-18T14:27:56.770Z,100157.56
2022-08-18T14:30:25.053Z,100156.97
2022-08-18T14:32:53.790Z,100150.06
2022-08-18T14:35:32.992Z,100152.69
2022-08-18T14:38:05.620Z,100147.81
2022-08-18T14:40:33.460Z,100145.41
2022-08-18T14:43:01.939Z,100151.97
2022-08-18T14:45:34.429Z,100140.44
2022-08-18T14:48:06.673Z,100140.13
2022-08-18T14:50:35.955Z,100136.91
2022-08-18T14:53:06.077Z,100136.38
2022-08-18T14:55:34.098Z,100136.28
2022-08-18T14:58:01.807Z,100132.91
2022-08-18T15:00:29.774Z,100136.47
2022-08-18T15:02:59.567Z,100136.56
2022-08-18T15:05:33.727Z,100145.38
2022-08-18T15:08:03.613Z,100135.94
2022-08-18T15:10:33.269Z,100139.50
2022-08-18T15:13:01.409Z,100145.59
2022-08-18T15:15:42.211Z,100142.03
2022-08-18T15:18:22.602Z,100140.94
2022-08-18T15:21:10.379Z,100140.75
2022-08-18T15:24:04.840Z,100141.25
2022-08-18T15:26:43.896Z,100143.47
2022-08-18T15:29:11.870Z,100148.00
2022-08-18T15:31:50.880Z,100151.09
2022-08-18T15:34:20.648Z,100142.88
2022-08-18T15:36:49.337Z,100147.16
2022-08-18T15:39:17.215Z,100143.84
2022-08-18T15:41:49.472Z,100149.72
2022-08-18T15:44:18.862Z,100139.63
2022-08-18T15:46:53.106Z,100142.06
2022-08-18T15:49:23.765Z,100140.84
2022-08-18T15:51:52.568Z,100141.06
2022-08-18T15:54:20.725Z,100142.16
2022-08-18T15:56:57.983Z,100133.28
2022-08-18T15:59:27.020Z,100134.72
2022-08-18T16:02:06.605Z,100141.09
2022-08-18T16:04:40.947Z,100139.19
2022-08-18T16:07:08.976Z,100140.63
2022-08-18T16:09:37.675Z,100131.03
2022-08-18T16:12:09.205Z,100132.56
2022-08-18T16:14:38.458Z,100131.94
2022-08-18T16:17:13.076Z,100128.22
2022-08-18T16:19:46.211Z,100134.97
2022-08-18T16:22:13.944Z,100133.13
2022-08-18T16:24:42.223Z,100129.09
2022-08-18T16:27:12.593Z,100133.66
2022-08-18T16:29:40.329Z,100130.00
2022-08-18T16:32:16.388Z,100129.78
2022-08-18T16:34:44.313Z,100128.56
2022-08-18T16:37:12.005Z,100132.84
2022-08-18T16:39:39.563Z,100126.75
2022-08-18T16:42:07.288Z,100132.13
2022-08-18T16:44:36.882Z,100137.00
2022-08-18T16:47:05.396Z,100131.44
2022-08-18T16:49:33.118Z,100137.28
2022-08-18T16:52:02.824Z,100138.91
2022-08-18T16:54:30.789Z,100139.22
2022-08-18T16:56:58.284Z,100142.13
2022-08-18T16:59:43.563Z,100145.97
2022-08-18T17:02:30.358Z,100126.56
2022-08-18T17:05:02.235Z,100144.22
2022-08-18T17:07:30.330Z,100137.13
2022-08-18T17:09:59.180Z,100134.91
2022-08-18T17:12:27.590Z,100137.41
2022-08-18T17:14:55.861Z,100136.63
2022-08-18T17:17:24.953Z,100143.38
2022-08-18T17:19:52.471Z,100149.81
2022-08-18T17:22:19.914Z,100141.56
2022-08-18T17:24:49.695Z,100136.09
2022-08-18T17:27:27.132Z,100144.16
2022-08-18T17:30:01.577Z,100136.81
2022-08-18T17:35:14.587Z,100146.41
2022-08-18T17:37:49.161Z,100138.31
2022-08-18T17:40:20.978Z,100148.94
2022-08-18T17:42:51.717Z,100140.59
2022-08-18T17:45:22.014Z,100146.47
2022-08-18T17:47:55.913Z,100149.53
2022-08-18T17:50:45.339Z,100159.25
2022-08-18T17:53:13.465Z,100153.88
2022-08-18T17:55:45.186Z,100157.50
2022-08-18T17:58:18.583Z,100160.72
2022-08-18T18:00:46.163Z,100158.72
2022-08-18T18:03:15.012Z,100161.09
2022-08-18T18:05:45.475Z,100163.09
2022-08-18T18:08:13.062Z,100167.50
2022-08-18T18:11:02.349Z,100165.88
2022-08-18T18:13:32.322Z,100169.84
2022-08-18T18:16:01.779Z,100167.63
2022-08-18T18:18:38.518Z,100174.31
2022-08-18T18:21:08.801Z,100184.22
2022-08-18T18:23:41.104Z,100177.72
2022-08-18T18:26:26.013Z,100178.78
2022-08-18T18:28:54.210Z,100178.41
2022-08-18T18:31:25.543Z,100207.31
2022-08-18T18:33:59.555Z,100196.03
2022-08-18T18:36:34.145Z,100201.13
2022-08-18T18:39:11.372Z,100193.34
2022-08-18T18:41:40.876Z,100189.75
2022-08-18T18:44:10.488Z,100193.31
2022-08-18T18:46:45.004Z,100190.69
2022-08-18T18:49:20.231Z,100195.88
2022-08-18T18:51:57.894Z,100206.38
2022-08-18T18:54:35.624Z,100211.72
2022-08-18T18:57:04.386Z,100202.50
2022-08-18T18:59:44.560Z,100195.75
2022-08-18T19:02:33.265Z,100205.88
2022-08-18T19:05:13.328Z,100194.25
2022-08-18T19:07:48.495Z,100186.97
2022-08-18T19:10:20.121Z,100196.97
2022-08-18T19:12:52.320Z,100203.75
2022-08-18T19:15:21.093Z,100207.28
2022-08-18T19:17:51.812Z,100205.66
2022-08-18T19:20:23.692Z,100199.66
2022-08-18T19:22:54.863Z,100197.75
2022-08-18T19:25:24.874Z,100204.28
2022-08-18T19:27:56.159Z,100201.03
2022-08-18T19:30:24.332Z,100207.53
2022-08-18T19:32:54.209Z,100201.56
2022-08-18T19:35:35.351Z,100211.88
2022-08-18T19:38:11.510Z,100208.34
2022-08-18T19:40:45.392Z,100214.03
2022-08-18T19:43:19.364Z,100216.22
2022-08-18T19:45:50.904Z,100219.75
2022-08-18T19:48:21.695Z,100212.66
2022-08-18T19:50:54.297Z,100214.84
2022-08-18T19:54:04.146Z,100212.13
2022-08-18T19:56:44.577Z,100213.78
2022-08-18T19:59:25.292Z,100218.94
2022-08-18T20:02:13.274Z,100217.81
2022-08-18T20:04:53.139Z,100204.75
2022-08-18T20:07:34.243Z,100208.06
2022-08-18T20:10:23.957Z,100208.38
2022-08-18T20:13:19.261Z,100211.31
2022-08-18T20:16:00.323Z,100213.16
2022-08-18T20:18:33.632Z,100210.16
2022-08-18T20:21:39.800Z,100218.09
2022-08-18T20:24:36.138Z,100207.50
2022-08-18T20:27:34.128Z,100218.38
2022-08-18T20:30:23.187Z,100202.13
2022-08-18T20:33:13.716Z,100205.13
2022-08-18T20:35:46.940Z,100208.63
2022-08-18T20:38:19.612Z,100208.91
2022-08-18T20:40:50.592Z,100207.50
2022-08-18T20:43:38.042Z,100209.69
2022-08-18T20:46:19.153Z,100202.63
2022-08-18T20:49:05.823Z,100209.41
2022-08-18T20:51:37.155Z,100217.03
2022-08-18T20:54:13.592Z,100214.88
2022-08-18T20:56:48.170Z,100225.72
2022-08-18T20:59:20.238Z,100228.69
2022-08-18T21:01:59.016Z,100222.16
2022-08-18T21:04:42.846Z,100220.25
2022-08-18T21:07:17.706Z,100216.19
2022-08-18T21:09:50.678Z,100221.34
2022-08-18T21:12:23.534Z,100217.81
2022-08-18T21:14:54.215Z,100223.75
2022-08-18T21:17:22.077Z,100227.53
2022-08-18T21:19:50.161Z,100229.97
2022-08-18T21:22:20.145Z,100235.03
2022-08-18T21:24:49.915Z,100233.88
2022-08-18T21:27:24.441Z,100232.19
2022-08-18T21:29:52.285Z,100229.44
2022-08-18T21:32:22.793Z,100221.78
2022-08-18T21:34:50.528Z,100220.91
2022-08-18T21:37:19.788Z,100209.22
2022-08-18T21:39:50.851Z,100202.66
2022-08-18T21:42:20.917Z,100211.56
2022-08-18T21:44:52.194Z,100209.09
2022-08-18T21:47:23.840Z,100208.38
2022-08-18T21:50:11.510Z,100207.84
2022-08-18T21:52:41.314Z,100203.88
2022-08-18T21:55:22.963Z,100202.53
2022-08-18T21:58:01.683Z,100201.22
2022-08-18T22:00:33.824Z,100205.78
2022-08-18T22:03:15.838Z,100216.16
2022-08-18T22:05:57.985Z,100205.91
2022-08-18T22:08:29.019Z,100220.78
2022-08-18T22:11:38.320Z,100215.47
2022-08-18T22:14:28.319Z,100221.09
2022-08-18T22:17:28.188Z,100219.66
2022-08-18T22:19:55.745Z,100219.03
2022-08-18T22:22:56.141Z,100224.69
2022-08-18T22:25:24.453Z,100239.59
2022-08-18T22:27:53.515Z,100237.06
2022-08-18T22:30:20.980Z,100249.75
2022-08-18T22:32:49.754Z,100249.44
2022-08-18T22:35:17.540Z,100249.50
2022-08-18T22:37:50.583Z,100254.13
2022-08-18T22:40:21.614Z,100262.78
2022-08-18T22:42:49.717Z,100264.22
2022-08-18T22:45:18.742Z,100275.03
2022-08-18T22:47:46.230Z,100273.16
2022-08-18T22:50:15.183Z,100278.19
2022-08-18T22:52:44.604Z,100271.91
2022-08-18T22:55:24.030Z,100281.03
2022-08-18T22:57:55.772Z,100284.00
2022-08-18T23:00:25.353Z,100286.81
2022-08-18T23:02:53.449Z,100292.28
2022-08-18T23:05:23.413Z,100289.06
2022-08-18T23:07:51.941Z,100283.72
2022-08-18T23:10:19.501Z,100291.78
2022-08-18T23:12:48.571Z,100295.84
2022-08-18T23:15:17.488Z,100280.38
2022-08-18T23:17:45.062Z,100276.53
2022-08-18T23:20:17.512Z,100270.13
2022-08-18T23:22:47.824Z,100268.50
2022-08-18T23:25:16.188Z,100278.00
2022-08-18T23:27:43.792Z,100279.66
2022-08-18T23:30:13.535Z,100276.75
2022-08-18T23:32:41.038Z,100276.34
2022-08-18T23:35:08.794Z,100269.19
2022-08-18T23:37:36.296Z,100268.81
2022-08-18T23:40:06.567Z,100268.63
2022-08-18T23:42:34.116Z,100266.75
2022-08-18T23:45:03.989Z,100263.19
2022-08-18T23:47:31.524Z,100263.72
2022-08-18T23:49:59.265Z,100269.66
2022-08-18T23:52:26.791Z,100275.09
2022-08-18T23:54:54.338Z,100284.84
2022-08-18T23:57:23.189Z,100280.59
2022-08-18T23:59:50.668Z,100270.81
